South Shore, Missouri
Current Conditions -  °F | °C
As of 2:54 AM on Sunday 23 Nov 2014 (Local Time) from KSET Reporting Station
Overcast Overcast  
Wind Chill: 52°   Ceiling: 10000
Heat Index: 52°   Visibility: 10mi
Dew Point: 46°   Wind: 10mph
Humidity: 80%   Direction: 140°SE
Pressure: 29.78"   Gusts: NA
Location:  38.8615°N, 90.4548°W
Report Text: KSET 230854Z AUTO 14009KT 10SM OVC100 11/08 A2978 RMK AO2 SLP082 T01110078 56024
Loading
Personal Weather Stations






























Interactive Weather Map New forecast layout! Learn more

10-Day Weather Forecast

Advertisements
Track Severe Weather on mobile